Time;durP1;ratioP1;P1;durP2;ratioP2;P2;SDS_P1;SDS_P2;PMS_P1;PMS_P2;Temp;Humidity;BMP_temperature;BMP_pressure;BME280_temperature;BME280_humidity;BME280_pressure;Samples;Min_cycle;Max_cycle;Signal;HPM_P1;HPM_P2
2022/05/18 00:01:17;;;;;;;0.10;0.10;;;18.10;99.90;;;;;;4923318;29;20047;-63
2022/05/18 00:03:45;;;;;;;0.00;0.00;;;18.10;99.90;;;;;;4925579;29;20059;-63
2022/05/18 00:06:11;;;;;;;0.00;0.00;;;18.10;99.90;;;;;;4925228;29;20668;-62
2022/05/18 00:08:36;;;;;;;0.00;0.00;;;18.00;99.90;;;;;;4924499;29;20047;-62
2022/05/18 00:11:08;;;;;;;0.00;0.00;;;18.00;99.90;;;;;;4924908;29;20127;-62
2022/05/18 00:13:35;;;;;;;0.00;0.00;;;17.90;99.90;;;;;;4924533;29;20071;-62
2022/05/18 00:16:01;;;;;;;0.00;0.00;;;17.80;99.90;;;;;;4924691;29;20039;-63
2022/05/18 00:18:27;;;;;;;0.00;0.00;;;17.90;99.90;;;;;;4924027;29;20047;-62
2022/05/18 00:20:52;;;;;;;0.00;0.00;;;17.80;99.90;;;;;;4925151;29;20738;-62
2022/05/18 00:23:18;;;;;;;0.00;0.00;;;17.80;99.90;;;;;;4907602;29;20063;-63
2022/05/18 00:25:44;;;;;;;0.00;0.00;;;17.70;99.90;;;;;;4924538;29;20039;-63
2022/05/18 00:28:09;;;;;;;0.00;0.00;;;17.70;99.90;;;;;;4924675;29;20086;-62
2022/05/18 00:30:38;;;;;;;0.00;0.00;;;17.70;99.90;;;;;;4924815;29;20641;-62
2022/05/18 00:33:05;;;;;;;0.00;0.00;;;17.70;99.90;;;;;;4923442;29;20071;-62
2022/05/18 00:35:33;;;;;;;0.00;0.00;;;17.70;99.90;;;;;;4924337;29;20047;-62
2022/05/18 00:38:00;;;;;;;0.00;0.00;;;17.60;99.90;;;;;;4924673;29;20600;-62
2022/05/18 00:40:26;;;;;;;0.00;0.00;;;17.60;99.90;;;;;;4924297;29;20055;-62
2022/05/18 00:42:51;;;;;;;0.00;0.00;;;17.60;99.90;;;;;;4924040;29;20415;-63
2022/05/18 00:45:18;;;;;;;0.00;0.00;;;17.50;99.90;;;;;;4919018;29;20464;-63
2022/05/18 00:47:44;;;;;;;0.10;0.10;;;17.50;99.90;;;;;;4913435;29;20407;-62
2022/05/18 00:50:21;;;;;;;0.00;0.00;;;17.50;99.90;;;;;;4888157;29;20139;-62
2022/05/18 00:52:57;;;;;;;0.00;0.00;;;17.50;99.90;;;;;;4905409;29;20159;-63
2022/05/18 00:55:25;;;;;;;0.00;0.00;;;17.50;99.90;;;;;;4903651;29;20051;-62
2022/05/18 00:57:57;;;;;;;0.00;0.00;;;17.40;99.90;;;;;;4905240;29;20250;-62
2022/05/18 01:00:23;;;;;;;0.00;0.00;;;17.40;99.90;;;;;;4905036;29;20495;-63
2022/05/18 01:03:04;;;;;;;0.08;0.00;;;17.40;99.90;;;;;;4904168;29;20060;-62
2022/05/18 01:05:33;;;;;;;0.00;0.00;;;17.40;99.90;;;;;;4905635;29;20044;-62
2022/05/18 01:07:59;;;;;;;0.40;0.40;;;17.40;99.90;;;;;;4904874;29;20036;-62
2022/05/18 01:10:28;;;;;;;0.00;0.00;;;17.50;99.90;;;;;;4904387;29;20059;-62
2022/05/18 01:12:55;;;;;;;0.00;0.00;;;17.40;99.90;;;;;;4904466;29;20063;-62
2022/05/18 01:15:21;;;;;;;0.00;0.00;;;17.30;99.90;;;;;;4904845;29;20049;-61
2022/05/18 01:17:51;;;;;;;0.00;0.00;;;17.30;99.90;;;;;;4886923;29;20056;-63
2022/05/18 01:20:22;;;;;;;0.10;0.10;;;17.30;99.90;;;;;;4904866;29;20380;-63
2022/05/18 01:22:47;;;;;;;0.00;0.00;;;17.30;99.90;;;;;;4905253;29;20147;-62
2022/05/18 01:25:22;;;;;;;0.20;0.20;;;17.20;99.90;;;;;;4888038;29;20048;-62
2022/05/18 01:27:48;;;;;;;0.00;0.00;;;17.30;99.90;;;;;;4888282;29;20052;-63
2022/05/18 01:30:14;;;;;;;0.00;0.00;;;17.20;99.90;;;;;;4905531;29;20054;-62
2022/05/18 01:32:46;;;;;;;0.22;0.20;;;17.20;99.90;;;;;;4903434;29;20040;-62
2022/05/18 01:35:15;;;;;;;0.00;0.00;;;17.10;99.90;;;;;;4905589;29;20067;-62
2022/05/18 01:37:41;;;;;;;0.10;0.10;;;17.10;99.90;;;;;;4905415;29;20051;-61
2022/05/18 01:40:46;;;;;;;0.00;0.00;;;17.10;99.90;;;;;;4887792;29;20131;-62
2022/05/18 01:43:17;;;;;;;0.00;0.00;;;17.10;99.90;;;;;;4905182;29;20044;-62
2022/05/18 01:45:42;;;;;;;0.05;0.05;;;17.10;99.90;;;;;;4909849;29;20146;-63
2022/05/18 01:48:14;;;;;;;0.00;0.00;;;17.10;99.90;;;;;;4909547;29;20077;-62
2022/05/18 01:50:41;;;;;;;0.10;0.10;;;17.00;99.90;;;;;;4887645;29;20063;-62
2022/05/18 01:53:08;;;;;;;0.17;0.05;;;17.00;99.90;;;;;;4904317;29;20052;-62
2022/05/18 01:55:34;;;;;;;0.10;0.10;;;16.90;99.90;;;;;;4904469;29;20122;-62
2022/05/18 01:58:01;;;;;;;0.10;0.10;;;16.90;99.90;;;;;;4905050;29;20094;-62
2022/05/18 02:00:28;;;;;;;0.00;0.00;;;16.90;99.90;;;;;;4886906;29;20055;-62
2022/05/18 02:02:54;;;;;;;0.10;0.10;;;16.90;99.90;;;;;;4903888;29;20111;-63
2022/05/18 02:05:20;;;;;;;0.00;0.00;;;16.80;99.90;;;;;;4887541;29;20052;-62
2022/05/18 02:07:45;;;;;;;0.00;0.00;;;16.90;99.90;;;;;;4904844;29;20067;-64
2022/05/18 02:10:11;;;;;;;0.00;0.00;;;16.90;99.90;;;;;;4887787;29;20135;-62
2022/05/18 02:12:38;;;;;;;0.00;0.00;;;16.90;99.90;;;;;;4904425;29;20802;-62
2022/05/18 02:15:05;;;;;;;0.00;0.00;;;16.80;99.90;;;;;;4904685;29;20762;-62
2022/05/18 02:17:31;;;;;;;0.00;0.00;;;16.80;99.90;;;;;;4903038;29;20135;-62
2022/05/18 02:19:57;;;;;;;0.00;0.00;;;16.80;99.90;;;;;;4904414;29;20092;-62
2022/05/18 02:22:24;;;;;;;0.32;0.32;;;16.80;99.90;;;;;;4904291;29;20551;-63
2022/05/18 02:24:49;;;;;;;0.00;0.00;;;16.80;99.90;;;;;;4889968;29;20131;-63
2022/05/18 02:27:15;;;;;;;0.00;0.00;;;16.70;99.90;;;;;;4908651;29;20084;-62
2022/05/18 02:29:41;;;;;;;0.00;0.00;;;16.70;99.90;;;;;;4908544;29;20135;-62
2022/05/18 02:32:07;;;;;;;0.00;0.00;;;16.70;99.90;;;;;;4907208;29;20048;-62
2022/05/18 02:34:33;;;;;;;0.43;0.22;;;16.70;99.90;;;;;;4890228;29;20048;-63
2022/05/18 02:36:58;;;;;;;0.00;0.00;;;16.70;99.90;;;;;;4908107;29;20039;-63
2022/05/18 02:39:24;;;;;;;0.10;0.00;;;16.60;99.90;;;;;;4907309;29;20048;-62
2022/05/18 02:41:50;;;;;;;0.00;0.00;;;16.60;99.90;;;;;;4907351;29;20054;-62
2022/05/18 02:44:17;;;;;;;0.00;0.00;;;16.50;99.90;;;;;;4907787;29;20047;-63
2022/05/18 02:46:43;;;;;;;0.00;0.00;;;16.60;99.90;;;;;;4917770;29;20040;-63
2022/05/18 02:49:09;;;;;;;0.00;0.00;;;16.50;99.90;;;;;;4907556;29;20042;-62
2022/05/18 02:51:34;;;;;;;0.65;0.35;;;16.50;99.90;;;;;;4906869;29;20494;-63
2022/05/18 02:54:02;;;;;;;0.00;0.00;;;16.40;99.90;;;;;;4907389;29;20058;-62
2022/05/18 02:56:28;;;;;;;0.00;0.00;;;16.50;99.90;;;;;;4907431;29;20123;-63
2022/05/18 02:58:56;;;;;;;0.10;0.03;;;16.40;99.90;;;;;;4906922;29;20849;-62
2022/05/18 03:01:27;;;;;;;0.00;0.00;;;16.40;99.90;;;;;;4906520;29;20056;-62
2022/05/18 03:03:54;;;;;;;0.00;0.00;;;16.40;99.90;;;;;;4890469;29;20459;-62
2022/05/18 03:06:22;;;;;;;0.00;0.00;;;16.40;99.90;;;;;;4906618;29;20171;-62
2022/05/18 03:08:48;;;;;;;0.00;0.00;;;16.40;99.90;;;;;;4905872;29;20444;-63
2022/05/18 03:11:14;;;;;;;0.00;0.00;;;16.30;99.90;;;;;;4890529;29;20100;-62
2022/05/18 03:13:40;;;;;;;0.10;0.10;;;16.20;99.90;;;;;;4906812;29;20057;-62
2022/05/18 03:16:06;;;;;;;0.00;0.00;;;16.20;99.90;;;;;;4906150;29;20044;-62
2022/05/18 03:18:32;;;;;;;0.00;0.00;;;16.20;99.90;;;;;;4907147;29;20095;-62
2022/05/18 03:23:43;;;;;;;0.00;0.00;;;16.20;99.90;;;;;;4907772;29;20048;-63
2022/05/18 03:26:11;;;;;;;0.10;0.10;;;16.20;99.90;;;;;;4907103;29;20138;-62
2022/05/18 03:28:39;;;;;;;0.00;0.00;;;16.10;99.90;;;;;;4906766;29;20095;-62
2022/05/18 03:31:06;;;;;;;0.00;0.00;;;16.10;99.90;;;;;;4888995;29;20314;-62
2022/05/18 03:33:32;;;;;;;0.00;0.00;;;16.10;99.90;;;;;;4906033;29;20089;-62
2022/05/18 03:35:58;;;;;;;0.00;0.00;;;16.10;99.90;;;;;;4906198;29;20521;-62
2022/05/18 03:38:24;;;;;;;0.10;0.10;;;16.10;99.90;;;;;;4906078;29;20062;-62
2022/05/18 03:40:50;;;;;;;0.00;0.00;;;16.10;99.90;;;;;;4906658;29;20115;-63
2022/05/18 03:43:17;;;;;;;0.00;0.00;;;16.00;99.90;;;;;;4906726;29;20048;-64
2022/05/18 03:45:43;;;;;;;0.10;0.10;;;16.00;99.90;;;;;;4893519;29;20055;-63
2022/05/18 03:48:13;;;;;;;0.00;0.00;;;16.00;99.90;;;;;;4912094;29;20420;-62
2022/05/18 03:50:42;;;;;;;0.00;0.00;;;15.90;99.90;;;;;;4906503;29;20036;-62
2022/05/18 03:53:09;;;;;;;0.00;0.00;;;16.00;99.90;;;;;;4889462;29;20048;-62
2022/05/18 03:55:37;;;;;;;0.08;0.08;;;16.00;99.90;;;;;;4905834;29;20048;-62
2022/05/18 03:58:03;;;;;;;0.00;0.00;;;15.90;99.90;;;;;;4906281;29;20040;-63
2022/05/18 04:00:30;;;;;;;0.00;0.00;;;15.90;99.90;;;;;;4906344;29;20083;-62
2022/05/18 04:02:56;;;;;;;0.00;0.00;;;15.90;99.90;;;;;;4887614;29;20048;-63
2022/05/18 04:05:22;;;;;;;0.00;0.00;;;16.00;99.90;;;;;;4889302;29;20044;-62
2022/05/18 04:07:48;;;;;;;0.08;0.08;;;15.90;99.90;;;;;;4906068;29;20529;-63
2022/05/18 04:10:15;;;;;;;0.00;0.00;;;15.90;99.90;;;;;;4906194;29;20044;-62
2022/05/18 04:12:41;;;;;;;0.10;0.10;;;15.90;99.90;;;;;;4906199;29;20052;-62
2022/05/18 04:15:07;;;;;;;0.00;0.00;;;15.80;99.90;;;;;;4906078;29;20048;-62
2022/05/18 04:17:33;;;;;;;0.00;0.00;;;15.90;99.90;;;;;;4905081;29;20043;-62
2022/05/18 04:19:59;;;;;;;0.00;0.00;;;15.80;99.90;;;;;;4905627;29;20044;-62
2022/05/18 04:22:24;;;;;;;0.00;0.00;;;15.80;99.90;;;;;;4905707;29;20040;-63
2022/05/18 04:24:51;;;;;;;0.10;0.10;;;15.90;99.90;;;;;;4889080;29;20043;-63
2022/05/18 04:27:16;;;;;;;0.00;0.00;;;15.80;99.90;;;;;;4905125;29;20127;-63
2022/05/18 04:29:42;;;;;;;0.00;0.00;;;15.80;99.90;;;;;;4906056;29;20115;-63
2022/05/18 04:32:09;;;;;;;0.00;0.00;;;15.90;99.90;;;;;;4904727;29;20055;-62
2022/05/18 04:34:35;;;;;;;0.13;0.10;;;15.80;99.90;;;;;;4905425;29;20090;-62
2022/05/18 04:37:01;;;;;;;0.00;0.00;;;15.90;99.90;;;;;;4905163;29;20048;-62
2022/05/18 04:39:26;;;;;;;0.00;0.00;;;15.80;99.90;;;;;;4905481;29;20518;-62
2022/05/18 04:41:52;;;;;;;0.00;0.00;;;16.00;99.90;;;;;;4905414;29;20135;-62
2022/05/18 04:44:18;;;;;;;0.00;0.00;;;16.00;99.90;;;;;;4887566;29;20115;-62
2022/05/18 04:46:43;;;;;;;0.08;0.08;;;16.20;99.90;;;;;;4911952;29;20147;-63
2022/05/18 04:49:13;;;;;;;0.10;0.10;;;16.70;99.90;;;;;;4907534;29;20051;-62
2022/05/18 04:51:39;;;;;;;0.10;0.10;;;16.80;99.90;;;;;;4924320;29;20082;-62
2022/05/18 04:54:05;;;;;;;0.00;0.00;;;17.00;99.90;;;;;;4906623;29;20130;-62
2022/05/18 04:56:31;;;;;;;0.00;0.00;;;17.20;99.90;;;;;;4924062;29;20499;-62
2022/05/18 04:58:57;;;;;;;0.17;0.17;;;17.40;99.90;;;;;;4924065;29;20040;-62
2022/05/18 05:01:26;;;;;;;0.00;0.00;;;17.60;99.90;;;;;;4922622;29;20052;-62
2022/05/18 05:03:52;;;;;;;0.03;0.03;;;17.80;99.90;;;;;;4924333;29;20051;-63
2022/05/18 05:06:18;;;;;;;0.80;0.25;;;18.00;99.90;;;;;;4924062;29;20111;-63
2022/05/18 05:08:43;;;;;;;0.00;0.00;;;17.90;99.90;;;;;;4906884;29;20583;-62
2022/05/18 05:11:09;;;;;;;0.00;0.00;;;17.90;99.90;;;;;;4924490;29;20525;-62
2022/05/18 05:13:36;;;;;;;0.13;0.13;;;18.00;99.90;;;;;;4923463;29;20043;-62
2022/05/18 05:16:10;;;;;;;0.00;0.00;;;18.00;99.90;;;;;;4923505;29;20229;-62
2022/05/18 05:18:36;;;;;;;0.10;0.10;;;18.20;99.90;;;;;;4924008;29;20056;-62
2022/05/18 05:21:02;;;;;;;0.05;0.05;;;18.30;99.90;;;;;;4923769;29;20051;-62
2022/05/18 05:23:28;;;;;;;0.00;0.00;;;18.40;99.90;;;;;;4907151;29;20226;-62
2022/05/18 05:25:55;;;;;;;0.40;0.40;;;18.80;99.90;;;;;;4906692;29;20146;-63
2022/05/18 05:28:22;;;;;;;0.00;0.00;;;19.10;99.90;;;;;;4906858;29;20596;-63
2022/05/18 05:30:48;;;;;;;0.20;0.10;;;19.10;99.90;;;;;;4923285;29;20705;-63
2022/05/18 05:33:14;;;;;;;0.00;0.00;;;19.10;99.90;;;;;;4906868;29;20548;-62
2022/05/18 05:35:42;;;;;;;0.10;0.00;;;18.90;99.90;;;;;;4923728;29;20054;-62
2022/05/18 05:38:09;;;;;;;0.10;0.10;;;18.70;99.90;;;;;;4923763;29;20273;-62
2022/05/18 05:40:36;;;;;;;0.45;0.25;;;18.70;99.90;;;;;;4923591;29;20055;-62
2022/05/18 05:43:09;;;;;;;0.00;0.00;;;18.70;99.90;;;;;;4906234;29;20044;-63
2022/05/18 05:45:36;;;;;;;0.08;0.08;;;18.70;99.90;;;;;;4916912;29;20059;-62
2022/05/18 05:48:01;;;;;;;0.00;0.00;;;18.70;99.90;;;;;;4893838;29;20059;-62
2022/05/18 05:50:27;;;;;;;0.00;0.00;;;18.90;99.90;;;;;;4904131;29;20048;-62
2022/05/18 05:52:53;;;;;;;0.00;0.00;;;19.20;99.90;;;;;;4904444;29;20049;-62
2022/05/18 05:55:19;;;;;;;0.10;0.10;;;19.20;99.90;;;;;;4904657;29;20076;-63
2022/05/18 05:57:45;;;;;;;0.00;0.00;;;19.00;99.90;;;;;;4887500;29;20041;-63
2022/05/18 06:00:11;;;;;;;0.08;0.00;;;19.10;99.90;;;;;;4908772;29;20059;-62
2022/05/18 06:02:37;;;;;;;0.20;0.20;;;19.30;99.90;;;;;;4907520;29;20618;-62
2022/05/18 06:05:03;;;;;;;0.00;0.00;;;19.40;99.90;;;;;;4891453;29;20182;-62
2022/05/18 06:07:32;;;;;;;0.10;0.10;;;19.40;99.90;;;;;;4907641;29;20432;-62
2022/05/18 06:09:58;;;;;;;0.20;0.20;;;19.30;99.90;;;;;;4908302;29;20119;-62
2022/05/18 06:12:25;;;;;;;0.20;0.13;;;19.30;99.90;;;;;;4907765;29;20135;-62
2022/05/18 06:14:51;;;;;;;0.32;0.32;;;19.60;99.90;;;;;;4890981;29;20432;-63
2022/05/18 06:17:17;;;;;;;0.25;0.25;;;19.60;99.90;;;;;;4907259;29;20131;-63
2022/05/18 06:19:43;;;;;;;0.00;0.00;;;19.70;99.90;;;;;;4891283;29;20048;-63
2022/05/18 06:22:08;;;;;;;0.43;0.20;;;19.80;99.90;;;;;;4890739;29;20506;-63
2022/05/18 06:24:35;;;;;;;0.00;0.00;;;19.80;99.90;;;;;;4906206;29;20052;-63
2022/05/18 06:27:01;;;;;;;0.32;0.30;;;19.80;99.90;;;;;;4908064;29;20066;-62
2022/05/18 06:29:27;;;;;;;0.10;0.10;;;19.90;99.90;;;;;;4907980;29;20044;-63
2022/05/18 06:31:53;;;;;;;0.32;0.13;;;19.90;99.90;;;;;;4906803;29;20043;-63
2022/05/18 06:34:21;;;;;;;0.20;0.17;;;19.90;99.90;;;;;;4907966;29;20555;-63
2022/05/18 06:36:50;;;;;;;0.10;0.10;;;19.80;99.90;;;;;;4906529;29;20046;-63
2022/05/18 06:39:18;;;;;;;0.08;0.08;;;20.20;99.90;;;;;;4906853;29;20091;-63
2022/05/18 06:41:45;;;;;;;0.10;0.10;;;20.30;99.90;;;;;;4908002;29;20055;-63
2022/05/18 06:44:11;;;;;;;0.10;0.10;;;20.60;99.90;;;;;;4907967;29;20083;-62
2022/05/18 06:46:38;;;;;;;0.30;0.10;;;20.60;99.90;;;;;;4917225;29;20083;-63
2022/05/18 06:49:08;;;;;;;0.17;0.10;;;20.80;99.90;;;;;;4907625;29;20047;-62
2022/05/18 06:51:37;;;;;;;0.40;0.22;;;20.80;99.90;;;;;;4907208;29;20056;-62
2022/05/18 06:54:03;;;;;;;0.28;0.22;;;20.80;99.90;;;;;;4890647;29;20051;-62
2022/05/18 06:56:32;;;;;;;0.38;0.38;;;20.60;99.90;;;;;;4907028;29;20181;-63
2022/05/18 06:58:57;;;;;;;0.20;0.20;;;20.70;99.90;;;;;;4907290;29;20111;-63
2022/05/18 07:01:24;;;;;;;0.10;0.10;;;20.70;99.90;;;;;;4906008;29;20060;-62
2022/05/18 07:03:50;;;;;;;0.38;0.28;;;20.60;99.90;;;;;;4906728;29;20052;-63
2022/05/18 07:06:19;;;;;;;0.10;0.10;;;20.70;99.90;;;;;;4889924;29;20044;-64
2022/05/18 07:08:45;;;;;;;0.10;0.10;;;20.90;99.90;;;;;;4907577;29;20131;-63
2022/05/18 07:11:10;;;;;;;1.48;0.55;;;20.80;99.90;;;;;;4905787;29;20144;-62
2022/05/18 07:13:36;;;;;;;1.85;0.32;;;21.10;99.90;;;;;;4906881;29;20056;-62
2022/05/18 07:16:03;;;;;;;0.20;0.20;;;21.30;99.90;;;;;;4906339;29;20071;-63
2022/05/18 07:18:31;;;;;;;0.03;0.03;;;21.50;99.90;;;;;;4889472;29;20444;-62
2022/05/18 07:20:58;;;;;;;0.38;0.32;;;21.50;99.90;;;;;;4906727;29;20469;-63
2022/05/18 07:23:25;;;;;;;0.10;0.10;;;21.70;99.90;;;;;;4906830;29;20460;-61
2022/05/18 07:25:57;;;;;;;0.38;0.30;;;22.00;99.90;;;;;;4889813;29;20111;-64
2022/05/18 07:28:24;;;;;;;0.00;0.00;;;21.80;99.90;;;;;;4904996;29;20463;-64
2022/05/18 07:30:51;;;;;;;0.20;0.10;;;22.10;99.90;;;;;;4889299;29;20052;-63
2022/05/18 07:33:18;;;;;;;0.47;0.17;;;21.90;99.90;;;;;;4906543;29;20044;-63
2022/05/18 07:35:44;;;;;;;0.00;0.00;;;22.10;99.90;;;;;;4889512;29;20131;-63
2022/05/18 07:38:10;;;;;;;0.20;0.10;;;22.20;99.90;;;;;;4889826;29;20048;-62
2022/05/18 07:40:36;;;;;;;0.00;0.00;;;22.50;99.90;;;;;;4889494;29;20440;-63
2022/05/18 07:43:02;;;;;;;0.32;0.10;;;22.60;99.90;;;;;;4906789;29;20108;-63
2022/05/18 07:45:28;;;;;;;0.90;0.65;;;22.50;99.90;;;;;;4891595;29;20486;-63
2022/05/18 07:47:54;;;;;;;0.10;0.10;;;22.50;99.90;;;;;;4913880;29;20040;-63
2022/05/18 07:50:21;;;;;;;0.00;0.00;;;22.70;99.90;;;;;;4906362;29;20078;-63
2022/05/18 07:52:47;;;;;;;0.00;0.00;;;22.80;99.90;;;;;;4905744;29;20052;-64
2022/05/18 07:55:13;;;;;;;0.17;0.17;;;22.70;99.90;;;;;;4906922;29;20050;-62
2022/05/18 07:57:39;;;;;;;0.00;0.00;;;22.60;99.90;;;;;;4905888;29;20052;-63
2022/05/18 08:00:08;;;;;;;0.00;0.00;;;22.40;99.90;;;;;;4905352;29;20419;-63
2022/05/18 08:02:34;;;;;;;0.15;0.10;;;22.50;99.90;;;;;;4889101;29;20063;-62
2022/05/18 08:04:59;;;;;;;0.30;0.10;;;22.60;99.90;;;;;;4906455;29;20067;-63
2022/05/18 08:07:25;;;;;;;0.32;0.10;;;22.70;99.90;;;;;;4889122;29;20075;-63
2022/05/18 08:15:20;;;;;;;0.20;0.10;;;22.80;99.90;;;;;;4905279;29;20127;-63
2022/05/18 08:17:46;;;;;;;0.00;0.00;;;22.90;99.90;;;;;;4906002;29;20048;-63
2022/05/18 08:20:15;;;;;;;0.22;0.10;;;22.90;99.90;;;;;;4906407;29;20600;-63
2022/05/18 08:22:41;;;;;;;0.30;0.10;;;23.10;99.90;;;;;;4888537;29;20047;-63
2022/05/18 08:25:09;;;;;;;0.10;0.10;;;23.10;99.90;;;;;;4905861;29;20040;-63
2022/05/18 08:27:42;;;;;;;0.00;0.00;;;23.20;99.90;;;;;;4888580;29;20060;-63
2022/05/18 08:30:11;;;;;;;0.03;0.00;;;23.40;99.90;;;;;;4887456;29;20655;-63
2022/05/18 08:32:36;;;;;;;0.00;0.00;;;23.50;99.90;;;;;;4905540;29;20044;-62
2022/05/18 08:35:03;;;;;;;0.20;0.20;;;23.70;99.90;;;;;;4905764;29;20067;-62
2022/05/18 08:37:29;;;;;;;0.00;0.00;;;24.00;99.90;;;;;;4888189;29;20044;-61
2022/05/18 08:39:54;;;;;;;0.00;0.00;;;24.00;99.90;;;;;;4888937;29;20148;-61
2022/05/18 08:42:20;;;;;;;0.00;0.00;;;24.10;99.90;;;;;;4905582;29;20040;-62
2022/05/18 08:44:47;;;;;;;0.00;0.00;;;24.10;99.90;;;;;;4907197;29;20047;-64
2022/05/18 08:47:27;;;;;;;0.10;0.10;;;24.40;99.90;;;;;;4896989;29;20092;-65
2022/05/18 08:50:00;;;;;;;2.75;1.45;;;24.40;99.90;;;;;;4905384;29;20060;-62
2022/05/18 08:52:44;;;;;;;0.10;0.10;;;24.40;99.90;;;;;;4904882;29;20056;-60
2022/05/18 08:55:32;;;;;;;0.20;0.20;;;24.50;99.90;;;;;;4905270;29;20039;-65
2022/05/18 08:57:59;;;;;;;0.20;0.20;;;24.60;99.90;;;;;;4904316;29;20515;-64
2022/05/18 09:00:38;;;;;;;0.68;0.30;;;24.80;99.90;;;;;;4904415;29;20443;-65
2022/05/18 09:03:11;;;;;;;0.30;0.30;;;24.80;99.90;;;;;;4904453;29;20052;-64
2022/05/18 09:05:45;;;;;;;0.00;0.00;;;24.90;99.90;;;;;;4905274;29;20056;-65
2022/05/18 09:08:24;;;;;;;0.15;0.08;;;25.00;99.90;;;;;;4905445;29;20295;-65
2022/05/18 09:11:02;;;;;;;0.22;0.22;;;25.00;99.90;;;;;;4905322;29;20048;-65
2022/05/18 09:13:28;;;;;;;0.25;0.25;;;24.90;99.90;;;;;;4905047;29;20759;-65
2022/05/18 09:16:44;;;;;;;0.10;0.10;;;24.90;99.90;;;;;;4903712;29;20131;-65
2022/05/18 09:19:45;;;;;;;0.03;0.03;;;25.20;99.90;;;;;;4847577;29;20060;-65
2022/05/18 09:22:42;;;;;;;0.32;0.20;;;25.30;99.90;;;;;;4863988;29;20052;-64
2022/05/18 09:25:27;;;;;;;0.20;0.10;;;25.90;99.90;;;;;;4904997;29;20127;-65
2022/05/18 09:28:00;;;;;;;1.70;0.40;;;25.90;99.90;;;;;;4888053;29;20063;-65
2022/05/18 09:30:49;;;;;;;0.08;0.08;;;25.80;99.90;;;;;;4903989;29;20052;-65
2022/05/18 09:33:42;;;;;;;0.00;0.00;;;25.90;99.90;;;;;;4906429;29;20088;-65
2022/05/18 09:36:46;;;;;;;0.17;0.10;;;26.10;99.90;;;;;;4891702;29;20048;-65
2022/05/18 09:39:15;;;;;;;0.10;0.10;;;25.90;99.90;;;;;;4908767;29;20052;-64
2022/05/18 09:41:51;;;;;;;0.10;0.10;;;26.10;99.90;;;;;;4909043;29;20091;-65
2022/05/18 09:44:53;;;;;;;0.28;0.10;;;26.70;99.90;;;;;;4891465;29;20135;-66
2022/05/18 09:47:22;;;;;;;0.88;0.32;;;26.90;99.90;;;;;;4899548;29;20056;-65
2022/05/18 09:49:51;;;;;;;0.00;0.00;;;26.60;99.90;;;;;;4908223;29;20048;-66
2022/05/18 09:52:26;;;;;;;0.00;0.00;;;26.70;99.90;;;;;;4908129;29;20127;-66
2022/05/18 09:54:55;;;;;;;0.10;0.10;;;27.00;99.90;;;;;;4908781;29;20051;-65
2022/05/18 09:57:42;;;;;;;0.00;0.00;;;27.20;99.90;;;;;;4907805;29;20344;-65
2022/05/18 10:00:12;;;;;;;0.17;0.17;;;27.40;99.90;;;;;;4859349;29;20530;-65
2022/05/18 10:08:14;;;;;;;0.20;0.17;;;27.30;99.90;;;;;;4908648;29;20048;-67
2022/05/18 10:10:41;;;;;;;0.00;0.00;;;27.60;99.90;;;;;;4891038;29;20048;-65
2022/05/18 10:13:10;;;;;;;0.10;0.00;;;27.80;99.90;;;;;;4907529;29;20056;-65
2022/05/18 10:15:46;;;;;;;0.05;0.05;;;28.00;99.90;;;;;;4890454;29;20067;-65
2022/05/18 10:18:18;;;;;;;0.10;0.10;;;28.10;99.90;;;;;;4908901;29;20048;-65
2022/05/18 10:21:10;;;;;;;0.20;0.20;;;28.10;99.90;;;;;;4891147;29;20135;-65
2022/05/18 10:23:50;;;;;;;0.10;0.10;;;28.10;99.90;;;;;;4908209;29;20407;-65
2022/05/18 10:26:29;;;;;;;0.20;0.20;;;28.20;99.90;;;;;;4907829;29;20112;-66
2022/05/18 10:29:02;;;;;;;1.23;0.75;;;28.10;99.90;;;;;;4891102;29;20178;-66
2022/05/18 10:31:42;;;;;;;0.20;0.10;;;28.10;99.90;;;;;;4890417;29;20071;-66
2022/05/18 10:34:28;;;;;;;0.17;0.17;;;28.20;99.90;;;;;;4891149;29;20682;-66
2022/05/18 10:36:56;;;;;;;0.00;0.00;;;28.10;99.90;;;;;;4907453;29;20452;-67
2022/05/18 10:39:36;;;;;;;0.00;0.00;;;28.60;99.90;;;;;;4907248;29;20044;-66
2022/05/18 10:42:14;;;;;;;0.38;0.35;;;29.00;99.90;;;;;;4907424;29;20059;-66
2022/05/18 10:44:40;;;;;;;0.00;0.00;;;29.30;99.90;;;;;;4906792;29;20067;-67
2022/05/18 10:47:19;;;;;;;0.38;0.38;;;29.60;99.90;;;;;;4899179;29;20051;-67
2022/05/18 10:49:45;;;;;;;0.00;0.00;;;29.70;99.90;;;;;;4945695;29;20050;-67
2022/05/18 10:52:30;;;;;;;0.10;0.00;;;29.90;99.90;;;;;;4928936;29;20035;-66
2022/05/18 10:55:04;;;;;;;0.00;0.00;;;29.90;99.90;;;;;;4946038;28;20043;-66
2022/05/18 10:57:29;;;;;;;;;;;29.90;99.90;;;;;;4945241;28;20782;-66
2022/05/18 11:00:18;;;;;;;0.00;0.00;;;29.80;99.90;;;;;;4944575;29;19930;-66
2022/05/18 11:03:08;;;;;;;0.00;0.00;;;29.80;99.90;;;;;;4904748;29;20087;-65
2022/05/18 11:05:48;;;;;;;0.10;0.10;;;30.00;99.90;;;;;;4889939;29;20048;-64
2022/05/18 11:08:19;;;;;;;0.13;0.13;;;29.70;99.90;;;;;;4927055;28;20151;-64
2022/05/18 11:11:01;;;;;;;0.10;0.10;;;29.80;99.90;;;;;;4911116;29;20043;-65
2022/05/18 11:13:46;;;;;;;0.00;0.00;;;29.50;99.90;;;;;;4942739;28;20055;-65
2022/05/18 11:16:19;;;;;;;0.00;0.00;;;29.80;99.90;;;;;;4944548;29;20043;-67
2022/05/18 11:19:16;;;;;;;0.00;0.00;;;30.30;99.90;;;;;;4927906;29;20526;-66
2022/05/18 11:22:00;;;;;;;0.52;0.10;;;29.50;99.90;;;;;;4907158;29;20059;-67
2022/05/18 11:24:46;;;;;;;;;;;29.20;99.90;;;;;;4907213;29;20052;-67
2022/05/18 11:27:27;;;;;;;0.13;0.13;;;29.10;99.90;;;;;;4907524;29;19923;-65
2022/05/18 11:29:59;;;;;;;0.10;0.10;;;28.80;99.90;;;;;;4905653;29;20127;-66
2022/05/18 11:32:34;;;;;;;0.20;0.20;;;28.80;99.90;;;;;;4906428;29;20103;-66
2022/05/18 11:35:17;;;;;;;0.05;0.05;;;29.10;99.90;;;;;;4906659;29;20499;-66
2022/05/18 11:37:59;;;;;;;0.10;0.10;;;29.10;99.90;;;;;;4890139;29;20131;-65
2022/05/18 11:40:24;;;;;;;0.00;0.00;;;29.50;99.90;;;;;;4906439;29;20044;-66
2022/05/18 11:43:28;;;;;;;0.15;0.15;;;29.30;99.90;;;;;;4906169;29;20127;-66
2022/05/18 11:45:59;;;;;;;0.10;0.10;;;28.90;99.90;;;;;;4911664;29;20053;-66
2022/05/18 11:48:37;;;;;;;0.00;0.00;;;29.10;99.90;;;;;;4942137;28;20407;-66
2022/05/18 11:51:05;;;;;;;0.20;0.20;;;29.20;99.90;;;;;;4939437;29;20051;-66
2022/05/18 11:53:49;;;;;;;0.10;0.10;;;28.90;99.90;;;;;;4942122;28;20070;-66
2022/05/18 11:56:29;;;;;;;0.40;0.35;;;28.80;99.90;;;;;;4923680;29;20047;-63
2022/05/18 11:59:30;;;;;;;0.20;0.20;;;28.70;99.90;;;;;;4941850;29;20518;-67
2022/05/18 12:02:14;;;;;;;0.17;0.10;;;28.90;99.90;;;;;;4938659;28;20054;-66
2022/05/18 12:04:49;;;;;;;;;;;28.90;99.90;;;;;;4939738;29;20063;-67
2022/05/18 12:07:43;;;;;;;0.10;0.10;;;29.10;99.90;;;;;;4925420;29;19941;-70
2022/05/18 12:10:24;;;;;;;0.00;0.00;;;29.00;99.90;;;;;;4920981;28;20067;-66
2022/05/18 12:12:59;;;;;;;0.05;0.05;;;29.30;99.90;;;;;;4940424;29;20066;-67
2022/05/18 12:15:48;;;;;;;0.10;0.10;;;29.60;99.90;;;;;;4937539;29;20055;-66
2022/05/18 12:18:22;;;;;;;0.10;0.10;;;29.70;99.90;;;;;;4941534;29;20426;-67
2022/05/18 12:21:02;;;;;;;0.10;0.10;;;29.40;99.90;;;;;;4921971;28;20054;-67
2022/05/18 12:23:35;;;;;;;0.10;0.10;;;29.70;99.90;;;;;;4939516;28;20121;-65
2022/05/18 12:26:00;;;;;;;0.10;0.10;;;29.30;99.90;;;;;;4936784;29;20118;-66
2022/05/18 12:28:28;;;;;;;0.00;0.00;;;28.90;99.90;;;;;;4941722;29;20134;-66
2022/05/18 12:30:55;;;;;;;0.10;0.10;;;28.80;99.90;;;;;;4940481;29;20119;-66
2022/05/18 12:33:24;;;;;;;0.10;0.10;;;29.00;99.90;;;;;;4941167;28;20070;-65
2022/05/18 12:36:01;;;;;;;0.20;0.20;;;29.10;99.90;;;;;;4916426;29;20043;-65
2022/05/18 12:38:52;;;;;;;0.35;0.35;;;28.80;99.90;;;;;;4940155;28;20062;-64
2022/05/18 12:41:21;;;;;;;0.10;0.10;;;29.10;99.90;;;;;;4867782;29;20656;-64
2022/05/18 12:43:55;;;;;;;0.70;0.22;;;29.00;99.90;;;;;;4941976;29;20078;-65
2022/05/18 12:46:26;;;;;;;0.10;0.10;;;28.80;99.90;;;;;;4931978;29;20054;-64
2022/05/18 12:48:52;;;;;;;0.05;0.05;;;28.50;99.90;;;;;;4904759;29;20051;-64
2022/05/18 12:51:27;;;;;;;0.00;0.00;;;28.80;99.90;;;;;;4924356;29;20663;-65
2022/05/18 12:53:52;;;;;;;0.00;0.00;;;28.90;99.90;;;;;;4926006;29;20444;-66
2022/05/18 12:56:46;;;;;;;0.10;0.10;;;29.00;99.90;;;;;;4934832;28;20048;-66
2022/05/18 12:59:18;;;;;;;0.00;0.00;;;28.80;99.90;;;;;;4906557;29;20087;-66
2022/05/18 13:01:46;;;;;;;0.17;0.17;;;28.80;99.90;;;;;;4921186;29;20059;-65
2022/05/18 13:04:14;;;;;;;0.30;0.20;;;28.70;99.90;;;;;;4910692;29;20052;-65
2022/05/18 13:06:49;;;;;;;0.10;0.10;;;28.40;99.90;;;;;;4894183;29;20402;-65
2022/05/18 13:09:27;;;;;;;0.00;0.00;;;28.20;99.90;;;;;;4892638;29;20108;-65
2022/05/18 13:12:27;;;;;;;0.17;0.10;;;28.00;99.90;;;;;;4910328;29;20507;-65
2022/05/18 13:15:14;;;;;;;5.03;1.55;;;28.10;99.90;;;;;;4892293;29;20177;-66
2022/05/18 13:17:45;;;;;;;0.30;0.17;;;28.10;99.90;;;;;;4909392;29;20514;-65
2022/05/18 13:20:29;;;;;;;0.38;0.30;;;28.20;99.90;;;;;;4909505;29;20047;-66